sensor_id;sensor_type;location;lat;lon;timestamp;temperature;humidity
3332;DHT22;1678;50.94845400;5.30809100;2022-10-23T00:01:11;11.90;99.90
3332;DHT22;1678;50.94845400;5.30809100;2022-10-23T00:03:41;11.90;99.90
3332;DHT22;1678;50.94845400;5.30809100;2022-10-23T00:06:10;11.90;99.90
3332;DHT22;1678;50.94845400;5.30809100;2022-10-23T00:08:38;11.80;99.90
3332;DHT22;1678;50.94845400;5.30809100;2022-10-23T00:11:07;11.70;99.90
3332;DHT22;1678;50.94845400;5.30809100;2022-10-23T00:13:35;11.70;99.90
3332;DHT22;1678;50.94845400;5.30809100;2022-10-23T00:16:04;11.70;99.90
3332;DHT22;1678;50.94845400;5.30809100;2022-10-23T00:18:33;11.60;99.90
3332;DHT22;1678;50.94845400;5.30809100;2022-10-23T00:21:03;11.60;99.90
3332;DHT22;1678;50.94845400;5.30809100;2022-10-23T00:23:31;11.70;99.90
3332;DHT22;1678;50.94845400;5.30809100;2022-10-23T00:25:59;11.70;99.90
3332;DHT22;1678;50.94845400;5.30809100;2022-10-23T00:28:27;11.70;99.90
3332;DHT22;1678;50.94845400;5.30809100;2022-10-23T00:30:55;11.70;99.90
3332;DHT22;1678;50.94845400;5.30809100;2022-10-23T00:33:23;11.70;99.90
3332;DHT22;1678;50.94845400;5.30809100;2022-10-23T00:35:51;11.70;99.90
3332;DHT22;1678;50.94845400;5.30809100;2022-10-23T00:38:20;11.60;99.90
3332;DHT22;1678;50.94845400;5.30809100;2022-10-23T00:40:49;11.70;99.90
3332;DHT22;1678;50.94845400;5.30809100;2022-10-23T00:43:18;11.60;99.90
3332;DHT22;1678;50.94845400;5.30809100;2022-10-23T00:45:47;11.60;99.90
3332;DHT22;1678;50.94845400;5.30809100;2022-10-23T00:48:15;11.50;99.90
3332;DHT22;1678;50.94845400;5.30809100;2022-10-23T00:50:44;11.60;99.90
3332;DHT22;1678;50.94845400;5.30809100;2022-10-23T00:53:13;11.50;99.90
3332;DHT22;1678;50.94845400;5.30809100;2022-10-23T00:55:46;11.50;99.90
3332;DHT22;1678;50.94845400;5.30809100;2022-10-23T00:58:16;11.50;99.90
3332;DHT22;1678;50.94845400;5.30809100;2022-10-23T01:00:47;11.50;99.90
3332;DHT22;1678;50.94845400;5.30809100;2022-10-23T01:03:18;11.60;99.90
3332;DHT22;1678;50.94845400;5.30809100;2022-10-23T01:05:49;11.60;99.90
3332;DHT22;1678;50.94845400;5.30809100;2022-10-23T01:08:23;11.60;99.90
3332;DHT22;1678;50.94845400;5.30809100;2022-10-23T01:11:03;11.60;99.90
3332;DHT22;1678;50.94845400;5.30809100;2022-10-23T01:13:36;11.60;99.90
3332;DHT22;1678;50.94845400;5.30809100;2022-10-23T01:16:10;11.60;99.90
3332;DHT22;1678;50.94845400;5.30809100;2022-10-23T01:18:44;11.60;99.90
3332;DHT22;1678;50.94845400;5.30809100;2022-10-23T01:21:17;11.60;99.90
3332;DHT22;1678;50.94845400;5.30809100;2022-10-23T01:24:03;11.60;99.90
3332;DHT22;1678;50.94845400;5.30809100;2022-10-23T01:26:46;11.60;99.90
3332;DHT22;1678;50.94845400;5.30809100;2022-10-23T01:29:22;11.70;99.90
3332;DHT22;1678;50.94845400;5.30809100;2022-10-23T01:31:57;11.70;99.90
3332;DHT22;1678;50.94845400;5.30809100;2022-10-23T01:34:29;11.70;99.90
3332;DHT22;1678;50.94845400;5.30809100;2022-10-23T01:36:59;11.70;99.90
3332;DHT22;1678;50.94845400;5.30809100;2022-10-23T01:39:33;11.80;99.90
3332;DHT22;1678;50.94845400;5.30809100;2022-10-23T01:42:05;11.90;99.90
3332;DHT22;1678;50.94845400;5.30809100;2022-10-23T01:44:40;11.90;99.90
3332;DHT22;1678;50.94845400;5.30809100;2022-10-23T01:47:10;12.00;99.90
3332;DHT22;1678;50.94845400;5.30809100;2022-10-23T01:49:41;12.00;99.90
3332;DHT22;1678;50.94845400;5.30809100;2022-10-23T01:52:12;12.00;99.90
3332;DHT22;1678;50.94845400;5.30809100;2022-10-23T01:54:42;12.00;99.90
3332;DHT22;1678;50.94845400;5.30809100;2022-10-23T01:57:13;12.00;99.90
3332;DHT22;1678;50.94845400;5.30809100;2022-10-23T01:59:46;12.10;99.90
3332;DHT22;1678;50.94845400;5.30809100;2022-10-23T02:02:17;12.10;99.90
3332;DHT22;1678;50.94845400;5.30809100;2022-10-23T02:04:50;12.20;99.90
3332;DHT22;1678;50.94845400;5.30809100;2022-10-23T02:07:20;12.40;99.90
3332;DHT22;1678;50.94845400;5.30809100;2022-10-23T02:09:48;12.50;99.90
3332;DHT22;1678;50.94845400;5.30809100;2022-10-23T02:12:25;12.40;99.90
3332;DHT22;1678;50.94845400;5.30809100;2022-10-23T02:14:59;12.50;99.90
3332;DHT22;1678;50.94845400;5.30809100;2022-10-23T02:17:35;12.50;99.90
3332;DHT22;1678;50.94845400;5.30809100;2022-10-23T02:20:16;12.50;99.90
3332;DHT22;1678;50.94845400;5.30809100;2022-10-23T02:22:53;12.60;99.90
3332;DHT22;1678;50.94845400;5.30809100;2022-10-23T02:25:29;12.70;99.90
3332;DHT22;1678;50.94845400;5.30809100;2022-10-23T02:28:02;12.80;99.90
3332;DHT22;1678;50.94845400;5.30809100;2022-10-23T02:30:35;12.90;99.90
3332;DHT22;1678;50.94845400;5.30809100;2022-10-23T02:33:04;12.90;99.90
3332;DHT22;1678;50.94845400;5.30809100;2022-10-23T02:35:33;12.80;99.90
3332;DHT22;1678;50.94845400;5.30809100;2022-10-23T02:38:01;12.80;99.90
3332;DHT22;1678;50.94845400;5.30809100;2022-10-23T02:40:31;12.80;99.90
3332;DHT22;1678;50.94845400;5.30809100;2022-10-23T02:43:07;12.80;99.90
3332;DHT22;1678;50.94845400;5.30809100;2022-10-23T02:45:45;12.90;99.90
3332;DHT22;1678;50.94845400;5.30809100;2022-10-23T02:48:19;12.90;99.90
3332;DHT22;1678;50.94845400;5.30809100;2022-10-23T02:50:52;12.90;99.90
3332;DHT22;1678;50.94845400;5.30809100;2022-10-23T02:53:29;13.00;99.90
3332;DHT22;1678;50.94845400;5.30809100;2022-10-23T02:56:08;13.00;99.90
3332;DHT22;1678;50.94845400;5.30809100;2022-10-23T02:58:43;12.90;99.90
3332;DHT22;1678;50.94845400;5.30809100;2022-10-23T03:01:16;12.90;99.90
3332;DHT22;1678;50.94845400;5.30809100;2022-10-23T03:03:50;12.90;99.90
3332;DHT22;1678;50.94845400;5.30809100;2022-10-23T03:06:19;12.90;99.90
3332;DHT22;1678;50.94845400;5.30809100;2022-10-23T03:08:53;12.90;99.90
3332;DHT22;1678;50.94845400;5.30809100;2022-10-23T03:11:22;12.90;99.90
3332;DHT22;1678;50.94845400;5.30809100;2022-10-23T03:13:50;12.90;99.90
3332;DHT22;1678;50.94845400;5.30809100;2022-10-23T03:16:19;12.90;99.90
3332;DHT22;1678;50.94845400;5.30809100;2022-10-23T03:18:47;12.90;99.90
3332;DHT22;1678;50.94845400;5.30809100;2022-10-23T03:21:15;12.90;99.90
3332;DHT22;1678;50.94845400;5.30809100;2022-10-23T03:23:43;12.80;99.90
3332;DHT22;1678;50.94845400;5.30809100;2022-10-23T03:26:11;12.90;99.90
3332;DHT22;1678;50.94845400;5.30809100;2022-10-23T03:28:39;12.90;99.90
3332;DHT22;1678;50.94845400;5.30809100;2022-10-23T03:31:07;12.90;99.90
3332;DHT22;1678;50.94845400;5.30809100;2022-10-23T03:33:37;12.90;99.90
3332;DHT22;1678;50.94845400;5.30809100;2022-10-23T03:36:05;12.90;99.90
3332;DHT22;1678;50.94845400;5.30809100;2022-10-23T03:38:33;12.90;99.90
3332;DHT22;1678;50.94845400;5.30809100;2022-10-23T03:41:01;12.90;99.90
3332;DHT22;1678;50.94845400;5.30809100;2022-10-23T03:43:29;12.90;99.90
3332;DHT22;1678;50.94845400;5.30809100;2022-10-23T03:45:57;12.90;99.90
3332;DHT22;1678;50.94845400;5.30809100;2022-10-23T03:48:26;13.00;99.90
3332;DHT22;1678;50.94845400;5.30809100;2022-10-23T03:50:56;12.90;99.90
3332;DHT22;1678;50.94845400;5.30809100;2022-10-23T03:53:24;12.90;99.90
3332;DHT22;1678;50.94845400;5.30809100;2022-10-23T03:55:52;13.00;99.90
3332;DHT22;1678;50.94845400;5.30809100;2022-10-23T03:58:20;12.90;99.90
3332;DHT22;1678;50.94845400;5.30809100;2022-10-23T04:00:48;12.90;99.90
3332;DHT22;1678;50.94845400;5.30809100;2022-10-23T04:03:16;12.90;99.90
3332;DHT22;1678;50.94845400;5.30809100;2022-10-23T04:05:44;13.00;99.90
3332;DHT22;1678;50.94845400;5.30809100;2022-10-23T04:08:13;13.00;99.90
3332;DHT22;1678;50.94845400;5.30809100;2022-10-23T04:10:46;13.10;99.90
3332;DHT22;1678;50.94845400;5.30809100;2022-10-23T04:13:14;13.10;99.90
3332;DHT22;1678;50.94845400;5.30809100;2022-10-23T04:15:47;13.10;99.90
3332;DHT22;1678;50.94845400;5.30809100;2022-10-23T04:18:16;13.20;99.90
3332;DHT22;1678;50.94845400;5.30809100;2022-10-23T04:20:46;13.20;99.90
3332;DHT22;1678;50.94845400;5.30809100;2022-10-23T04:23:17;13.20;99.90
3332;DHT22;1678;50.94845400;5.30809100;2022-10-23T04:25:45;13.20;99.90
3332;DHT22;1678;50.94845400;5.30809100;2022-10-23T04:28:18;13.20;99.90
3332;DHT22;1678;50.94845400;5.30809100;2022-10-23T04:30:46;13.20;99.90
3332;DHT22;1678;50.94845400;5.30809100;2022-10-23T04:33:14;13.20;99.90
3332;DHT22;1678;50.94845400;5.30809100;2022-10-23T04:35:42;13.30;99.90
3332;DHT22;1678;50.94845400;5.30809100;2022-10-23T04:38:10;13.30;99.90
3332;DHT22;1678;50.94845400;5.30809100;2022-10-23T04:40:40;13.30;99.90
3332;DHT22;1678;50.94845400;5.30809100;2022-10-23T04:43:08;13.30;99.90
3332;DHT22;1678;50.94845400;5.30809100;2022-10-23T04:45:36;13.40;99.90
3332;DHT22;1678;50.94845400;5.30809100;2022-10-23T04:48:04;13.40;99.90
3332;DHT22;1678;50.94845400;5.30809100;2022-10-23T04:50:32;13.40;99.90
3332;DHT22;1678;50.94845400;5.30809100;2022-10-23T04:53:00;13.40;99.90
3332;DHT22;1678;50.94845400;5.30809100;2022-10-23T04:55:28;13.40;99.90
3332;DHT22;1678;50.94845400;5.30809100;2022-10-23T04:57:57;13.40;99.90
3332;DHT22;1678;50.94845400;5.30809100;2022-10-23T05:00:25;13.40;99.90
3332;DHT22;1678;50.94845400;5.30809100;2022-10-23T05:02:53;13.40;99.90
3332;DHT22;1678;50.94845400;5.30809100;2022-10-23T05:05:21;13.40;99.90
3332;DHT22;1678;50.94845400;5.30809100;2022-10-23T05:07:49;13.40;99.90
3332;DHT22;1678;50.94845400;5.30809100;2022-10-23T05:10:17;13.30;99.90
3332;DHT22;1678;50.94845400;5.30809100;2022-10-23T05:12:45;13.30;99.90
3332;DHT22;1678;50.94845400;5.30809100;2022-10-23T05:15:15;13.30;99.90
3332;DHT22;1678;50.94845400;5.30809100;2022-10-23T05:17:44;13.30;99.90
3332;DHT22;1678;50.94845400;5.30809100;2022-10-23T05:20:15;13.30;99.90
3332;DHT22;1678;50.94845400;5.30809100;2022-10-23T05:22:45;13.30;99.90
3332;DHT22;1678;50.94845400;5.30809100;2022-10-23T05:25:16;13.30;99.90
3332;DHT22;1678;50.94845400;5.30809100;2022-10-23T05:27:44;13.30;99.90
3332;DHT22;1678;50.94845400;5.30809100;2022-10-23T05:30:17;13.30;99.90
3332;DHT22;1678;50.94845400;5.30809100;2022-10-23T05:32:45;13.40;99.90
3332;DHT22;1678;50.94845400;5.30809100;2022-10-23T05:35:17;13.40;99.90
3332;DHT22;1678;50.94845400;5.30809100;2022-10-23T05:37:47;13.30;99.90
3332;DHT22;1678;50.94845400;5.30809100;2022-10-23T05:40:16;13.30;99.90
3332;DHT22;1678;50.94845400;5.30809100;2022-10-23T05:42:44;13.30;99.90
3332;DHT22;1678;50.94845400;5.30809100;2022-10-23T05:45:12;13.20;99.90
3332;DHT22;1678;50.94845400;5.30809100;2022-10-23T05:47:44;13.20;99.90
3332;DHT22;1678;50.94845400;5.30809100;2022-10-23T05:50:12;13.20;99.90
3332;DHT22;1678;50.94845400;5.30809100;2022-10-23T05:52:40;13.10;99.90
3332;DHT22;1678;50.94845400;5.30809100;2022-10-23T05:55:09;13.10;99.90
3332;DHT22;1678;50.94845400;5.30809100;2022-10-23T05:57:37;13.10;99.90
3332;DHT22;1678;50.94845400;5.30809100;2022-10-23T06:00:06;13.10;99.90
3332;DHT22;1678;50.94845400;5.30809100;2022-10-23T06:02:34;13.10;99.90
3332;DHT22;1678;50.94845400;5.30809100;2022-10-23T06:05:04;13.10;99.90
3332;DHT22;1678;50.94845400;5.30809100;2022-10-23T06:07:32;13.10;99.90
3332;DHT22;1678;50.94845400;5.30809100;2022-10-23T06:10:02;13.10;99.90
3332;DHT22;1678;50.94845400;5.30809100;2022-10-23T06:12:30;13.10;99.90
3332;DHT22;1678;50.94845400;5.30809100;2022-10-23T06:14:58;13.20;99.90
3332;DHT22;1678;50.94845400;5.30809100;2022-10-23T06:17:26;13.20;99.90
3332;DHT22;1678;50.94845400;5.30809100;2022-10-23T06:19:54;13.20;99.90
3332;DHT22;1678;50.94845400;5.30809100;2022-10-23T06:22:28;13.20;99.90
3332;DHT22;1678;50.94845400;5.30809100;2022-10-23T06:24:56;13.30;99.90
3332;DHT22;1678;50.94845400;5.30809100;2022-10-23T06:27:24;13.40;99.90
3332;DHT22;1678;50.94845400;5.30809100;2022-10-23T06:29:52;13.40;99.90
3332;DHT22;1678;50.94845400;5.30809100;2022-10-23T06:32:20;13.50;99.90
3332;DHT22;1678;50.94845400;5.30809100;2022-10-23T06:34:48;13.50;99.90
3332;DHT22;1678;50.94845400;5.30809100;2022-10-23T06:37:16;13.60;99.90
3332;DHT22;1678;50.94845400;5.30809100;2022-10-23T06:39:45;13.60;99.90
3332;DHT22;1678;50.94845400;5.30809100;2022-10-23T06:42:13;13.60;99.90
3332;DHT22;1678;50.94845400;5.30809100;2022-10-23T06:44:41;13.60;99.90
3332;DHT22;1678;50.94845400;5.30809100;2022-10-23T06:47:09;13.60;99.90
3332;DHT22;1678;50.94845400;5.30809100;2022-10-23T06:49:40;13.60;99.90
3332;DHT22;1678;50.94845400;5.30809100;2022-10-23T06:52:08;13.60;99.90
3332;DHT22;1678;50.94845400;5.30809100;2022-10-23T06:54:55;13.60;99.90
3332;DHT22;1678;50.94845400;5.30809100;2022-10-23T06:57:23;13.60;99.90
3332;DHT22;1678;50.94845400;5.30809100;2022-10-23T06:59:51;13.60;99.90
3332;DHT22;1678;50.94845400;5.30809100;2022-10-23T07:02:19;13.60;99.90
3332;DHT22;1678;50.94845400;5.30809100;2022-10-23T07:04:47;13.70;99.90
3332;DHT22;1678;50.94845400;5.30809100;2022-10-23T07:07:16;13.80;99.90
3332;DHT22;1678;50.94845400;5.30809100;2022-10-23T07:09:44;13.90;99.90
3332;DHT22;1678;50.94845400;5.30809100;2022-10-23T07:12:13;14.10;99.90
3332;DHT22;1678;50.94845400;5.30809100;2022-10-23T07:14:41;14.10;99.90
3332;DHT22;1678;50.94845400;5.30809100;2022-10-23T07:17:09;14.20;99.90
3332;DHT22;1678;50.94845400;5.30809100;2022-10-23T07:19:37;14.40;99.90
3332;DHT22;1678;50.94845400;5.30809100;2022-10-23T07:22:05;14.50;99.90
3332;DHT22;1678;50.94845400;5.30809100;2022-10-23T07:24:39;14.60;99.90
3332;DHT22;1678;50.94845400;5.30809100;2022-10-23T07:27:07;14.60;99.90
3332;DHT22;1678;50.94845400;5.30809100;2022-10-23T07:29:36;14.70;99.90
3332;DHT22;1678;50.94845400;5.30809100;2022-10-23T07:32:04;14.80;99.90
3332;DHT22;1678;50.94845400;5.30809100;2022-10-23T07:34:33;14.90;99.90
3332;DHT22;1678;50.94845400;5.30809100;2022-10-23T07:37:02;15.00;99.90
3332;DHT22;1678;50.94845400;5.30809100;2022-10-23T07:39:30;15.00;99.90
3332;DHT22;1678;50.94845400;5.30809100;2022-10-23T07:41:58;15.00;99.90
3332;DHT22;1678;50.94845400;5.30809100;2022-10-23T07:44:26;15.10;99.90
3332;DHT22;1678;50.94845400;5.30809100;2022-10-23T07:46:56;15.20;99.90
3332;DHT22;1678;50.94845400;5.30809100;2022-10-23T07:49:24;15.10;99.90
3332;DHT22;1678;50.94845400;5.30809100;2022-10-23T07:51:52;15.20;99.90
3332;DHT22;1678;50.94845400;5.30809100;2022-10-23T07:54:20;15.30;99.90
3332;DHT22;1678;50.94845400;5.30809100;2022-10-23T07:56:48;15.30;99.90
3332;DHT22;1678;50.94845400;5.30809100;2022-10-23T07:59:16;15.40;99.90
3332;DHT22;1678;50.94845400;5.30809100;2022-10-23T08:01:44;15.50;99.90
3332;DHT22;1678;50.94845400;5.30809100;2022-10-23T08:04:18;15.60;99.90
3332;DHT22;1678;50.94845400;5.30809100;2022-10-23T08:06:46;15.60;99.90
3332;DHT22;1678;50.94845400;5.30809100;2022-10-23T08:09:14;15.70;99.90
3332;DHT22;1678;50.94845400;5.30809100;2022-10-23T08:11:43;15.80;99.90
3332;DHT22;1678;50.94845400;5.30809100;2022-10-23T08:14:11;15.80;99.90
3332;DHT22;1678;50.94845400;5.30809100;2022-10-23T08:16:39;15.80;99.90
3332;DHT22;1678;50.94845400;5.30809100;2022-10-23T08:19:07;15.90;99.90
3332;DHT22;1678;50.94845400;5.30809100;2022-10-23T08:21:36;15.90;99.90
3332;DHT22;1678;50.94845400;5.30809100;2022-10-23T08:24:05;16.00;99.90
3332;DHT22;1678;50.94845400;5.30809100;2022-10-23T08:26:33;16.10;99.90
3332;DHT22;1678;50.94845400;5.30809100;2022-10-23T08:29:01;16.20;99.90
3332;DHT22;1678;50.94845400;5.30809100;2022-10-23T08:31:29;16.20;99.90
3332;DHT22;1678;50.94845400;5.30809100;2022-10-23T08:33:57;16.30;99.90
3332;DHT22;1678;50.94845400;5.30809100;2022-10-23T08:36:26;16.40;99.90
3332;DHT22;1678;50.94845400;5.30809100;2022-10-23T08:38:57;16.40;99.90
3332;DHT22;1678;50.94845400;5.30809100;2022-10-23T08:41:28;16.50;99.90
3332;DHT22;1678;50.94845400;5.30809100;2022-10-23T08:44:01;16.50;99.90
3332;DHT22;1678;50.94845400;5.30809100;2022-10-23T08:46:38;16.60;99.90
3332;DHT22;1678;50.94845400;5.30809100;2022-10-23T08:49:19;16.60;99.90
3332;DHT22;1678;50.94845400;5.30809100;2022-10-23T08:51:54;16.70;99.90
3332;DHT22;1678;50.94845400;5.30809100;2022-10-23T08:54:29;16.80;99.90
3332;DHT22;1678;50.94845400;5.30809100;2022-10-23T08:57:06;16.90;99.90
3332;DHT22;1678;50.94845400;5.30809100;2022-10-23T08:59:39;16.90;99.90
3332;DHT22;1678;50.94845400;5.30809100;2022-10-23T09:02:15;17.00;99.90
3332;DHT22;1678;50.94845400;5.30809100;2022-10-23T09:04:46;17.10;99.90
3332;DHT22;1678;50.94845400;5.30809100;2022-10-23T09:07:22;17.10;99.90
3332;DHT22;1678;50.94845400;5.30809100;2022-10-23T09:10:06;17.10;99.90
3332;DHT22;1678;50.94845400;5.30809100;2022-10-23T09:12:37;17.20;99.90
3332;DHT22;1678;50.94845400;5.30809100;2022-10-23T09:15:23;17.10;99.90
3332;DHT22;1678;50.94845400;5.30809100;2022-10-23T09:17:57;17.30;99.90
3332;DHT22;1678;50.94845400;5.30809100;2022-10-23T09:20:29;17.40;99.90
3332;DHT22;1678;50.94845400;5.30809100;2022-10-23T09:23:01;17.50;99.90
3332;DHT22;1678;50.94845400;5.30809100;2022-10-23T09:25:36;17.60;99.90
3332;DHT22;1678;50.94845400;5.30809100;2022-10-23T09:28:04;17.60;99.90
3332;DHT22;1678;50.94845400;5.30809100;2022-10-23T09:30:35;17.60;99.90
3332;DHT22;1678;50.94845400;5.30809100;2022-10-23T09:33:13;17.80;99.90
3332;DHT22;1678;50.94845400;5.30809100;2022-10-23T09:35:52;17.80;99.90
3332;DHT22;1678;50.94845400;5.30809100;2022-10-23T09:38:31;17.90;99.90
3332;DHT22;1678;50.94845400;5.30809100;2022-10-23T09:41:05;17.90;99.90
3332;DHT22;1678;50.94845400;5.30809100;2022-10-23T09:43:33;17.80;99.90
3332;DHT22;1678;50.94845400;5.30809100;2022-10-23T09:46:02;17.80;99.90
3332;DHT22;1678;50.94845400;5.30809100;2022-10-23T09:48:32;17.90;99.90
3332;DHT22;1678;50.94845400;5.30809100;2022-10-23T09:51:02;17.90;99.90
3332;DHT22;1678;50.94845400;5.30809100;2022-10-23T09:53:37;18.00;99.90
3332;DHT22;1678;50.94845400;5.30809100;2022-10-23T09:56:23;18.10;99.90
3332;DHT22;1678;50.94845400;5.30809100;2022-10-23T09:58:54;18.10;99.90
3332;DHT22;1678;50.94845400;5.30809100;2022-10-23T10:01:25;18.00;99.90
3332;DHT22;1678;50.94845400;5.30809100;2022-10-23T10:03:53;17.90;99.90
3332;DHT22;1678;50.94845400;5.30809100;2022-10-23T10:06:24;17.80;99.90
3332;DHT22;1678;50.94845400;5.30809100;2022-10-23T10:08:55;17.70;99.90
3332;DHT22;1678;50.94845400;5.30809100;2022-10-23T10:11:32;17.70;99.90
3332;DHT22;1678;50.94845400;5.30809100;2022-10-23T10:14:40;17.80;99.90
3332;DHT22;1678;50.94845400;5.30809100;2022-10-23T10:17:17;18.00;99.90
3332;DHT22;1678;50.94845400;5.30809100;2022-10-23T10:20:20;18.20;99.90
3332;DHT22;1678;50.94845400;5.30809100;2022-10-23T10:22:52;18.40;99.90
3332;DHT22;1678;50.94845400;5.30809100;2022-10-23T10:25:27;18.70;99.90
3332;DHT22;1678;50.94845400;5.30809100;2022-10-23T10:28:11;19.00;99.90
3332;DHT22;1678;50.94845400;5.30809100;2022-10-23T10:30:48;19.20;99.90
3332;DHT22;1678;50.94845400;5.30809100;2022-10-23T10:33:25;19.40;99.90
3332;DHT22;1678;50.94845400;5.30809100;2022-10-23T10:35:58;19.60;99.90
3332;DHT22;1678;50.94845400;5.30809100;2022-10-23T10:38:43;19.50;99.90
3332;DHT22;1678;50.94845400;5.30809100;2022-10-23T10:44:19;19.50;99.90
3332;DHT22;1678;50.94845400;5.30809100;2022-10-23T10:46:55;19.60;99.90
3332;DHT22;1678;50.94845400;5.30809100;2022-10-23T10:49:32;19.70;99.90
3332;DHT22;1678;50.94845400;5.30809100;2022-10-23T10:52:10;19.90;99.90
3332;DHT22;1678;50.94845400;5.30809100;2022-10-23T10:54:49;20.00;99.90
3332;DHT22;1678;50.94845400;5.30809100;2022-10-23T10:57:26;20.10;99.90
3332;DHT22;1678;50.94845400;5.30809100;2022-10-23T11:00:03;20.10;99.90
3332;DHT22;1678;50.94845400;5.30809100;2022-10-23T11:02:37;20.10;99.90
3332;DHT22;1678;50.94845400;5.30809100;2022-10-23T11:05:15;20.10;99.90
3332;DHT22;1678;50.94845400;5.30809100;2022-10-23T11:07:54;20.50;99.90
3332;DHT22;1678;50.94845400;5.30809100;2022-10-23T11:10:23;20.70;99.60
3332;DHT22;1678;50.94845400;5.30809100;2022-10-23T11:12:52;20.70;97.80
3332;DHT22;1678;50.94845400;5.30809100;2022-10-23T11:15:26;20.60;94.50
3332;DHT22;1678;50.94845400;5.30809100;2022-10-23T11:17:58;20.50;96.40
3332;DHT22;1678;50.94845400;5.30809100;2022-10-23T11:20:44;20.50;96.00
3332;DHT22;1678;50.94845400;5.30809100;2022-10-23T11:23:35;20.50;95.20
3332;DHT22;1678;50.94845400;5.30809100;2022-10-23T11:26:18;20.40;94.00
3332;DHT22;1678;50.94845400;5.30809100;2022-10-23T11:29:01;20.40;95.70
3332;DHT22;1678;50.94845400;5.30809100;2022-10-23T11:31:37;20.50;96.70
3332;DHT22;1678;50.94845400;5.30809100;2022-10-23T11:34:32;20.50;95.80
3332;DHT22;1678;50.94845400;5.30809100;2022-10-23T11:37:05;20.60;94.20
3332;DHT22;1678;50.94845400;5.30809100;2022-10-23T11:39:35;20.40;92.40
3332;DHT22;1678;50.94845400;5.30809100;2022-10-23T11:42:13;20.40;93.50
3332;DHT22;1678;50.94845400;5.30809100;2022-10-23T11:44:44;20.30;94.10
3332;DHT22;1678;50.94845400;5.30809100;2022-10-23T11:47:28;20.30;93.60
3332;DHT22;1678;50.94845400;5.30809100;2022-10-23T11:50:25;20.30;94.60
3332;DHT22;1678;50.94845400;5.30809100;2022-10-23T11:52:56;20.50;94.00
3332;DHT22;1678;50.94845400;5.30809100;2022-10-23T11:55:59;20.50;93.70
3332;DHT22;1678;50.94845400;5.30809100;2022-10-23T11:58:40;20.60;92.50
3332;DHT22;1678;50.94845400;5.30809100;2022-10-23T12:01:23;20.80;93.40
3332;DHT22;1678;50.94845400;5.30809100;2022-10-23T12:03:58;20.80;90.80
3332;DHT22;1678;50.94845400;5.30809100;2022-10-23T12:06:29;20.80;92.60
3332;DHT22;1678;50.94845400;5.30809100;2022-10-23T12:09:01;21.00;90.50
3332;DHT22;1678;50.94845400;5.30809100;2022-10-23T12:11:45;21.20;90.70
3332;DHT22;1678;50.94845400;5.30809100;2022-10-23T12:14:28;21.20;90.70
3332;DHT22;1678;50.94845400;5.30809100;2022-10-23T12:16:56;21.20;90.30
3332;DHT22;1678;50.94845400;5.30809100;2022-10-23T12:19:27;21.30;89.50
3332;DHT22;1678;50.94845400;5.30809100;2022-10-23T12:21:58;21.40;90.00
3332;DHT22;1678;50.94845400;5.30809100;2022-10-23T12:24:35;21.30;88.30
3332;DHT22;1678;50.94845400;5.30809100;2022-10-23T12:27:15;21.40;88.50
3332;DHT22;1678;50.94845400;5.30809100;2022-10-23T12:29:58;21.30;89.40
3332;DHT22;1678;50.94845400;5.30809100;2022-10-23T12:32:38;21.30;87.70
3332;DHT22;1678;50.94845400;5.30809100;2022-10-23T12:35:23;21.40;88.20
3332;DHT22;1678;50.94845400;5.30809100;2022-10-23T12:38:02;21.40;87.70
3332;DHT22;1678;50.94845400;5.30809100;2022-10-23T12:40:34;21.20;88.30
3332;DHT22;1678;50.94845400;5.30809100;2022-10-23T12:43:02;21.30;88.20
3332;DHT22;1678;50.94845400;5.30809100;2022-10-23T12:45:31;21.20;88.40
3332;DHT22;1678;50.94845400;5.30809100;2022-10-23T12:48:04;21.20;88.00
3332;DHT22;1678;50.94845400;5.30809100;2022-10-23T12:50:33;21.20;88.30
3332;DHT22;1678;50.94845400;5.30809100;2022-10-23T12:53:03;21.10;89.00
3332;DHT22;1678;50.94845400;5.30809100;2022-10-23T12:55:46;21.00;87.70
3332;DHT22;1678;50.94845400;5.30809100;2022-10-23T12:58:19;21.10;86.40
3332;DHT22;1678;50.94845400;5.30809100;2022-10-23T13:00:52;21.30;89.90
3332;DHT22;1678;50.94845400;5.30809100;2022-10-23T13:03:22;21.30;87.20
3332;DHT22;1678;50.94845400;5.30809100;2022-10-23T13:05:54;21.40;87.10
3332;DHT22;1678;50.94845400;5.30809100;2022-10-23T13:08:31;21.40;86.50
3332;DHT22;1678;50.94845400;5.30809100;2022-10-23T13:10:59;21.50;89.40
3332;DHT22;1678;50.94845400;5.30809100;2022-10-23T13:13:28;21.50;87.20
3332;DHT22;1678;50.94845400;5.30809100;2022-10-23T13:15:56;21.60;88.20
3332;DHT22;1678;50.94845400;5.30809100;2022-10-23T13:18:24;21.60;86.40
3332;DHT22;1678;50.94845400;5.30809100;2022-10-23T13:20:57;21.60;83.80
3332;DHT22;1678;50.94845400;5.30809100;2022-10-23T13:23:30;21.50;87.60
3332;DHT22;1678;50.94845400;5.30809100;2022-10-23T13:26:01;21.40;86.60
3332;DHT22;1678;50.94845400;5.30809100;2022-10-23T13:28:31;21.50;88.20
3332;DHT22;1678;50.94845400;5.30809100;2022-10-23T13:31:04;21.40;86.20
3332;DHT22;1678;50.94845400;5.30809100;2022-10-23T13:33:35;21.40;87.00
3332;DHT22;1678;50.94845400;5.30809100;2022-10-23T13:36:19;21.60;88.80
3332;DHT22;1678;50.94845400;5.30809100;2022-10-23T13:38:59;21.80;86.00
3332;DHT22;1678;50.94845400;5.30809100;2022-10-23T13:41:29;21.90;84.40
3332;DHT22;1678;50.94845400;5.30809100;2022-10-23T13:44:01;21.80;84.20
3332;DHT22;1678;50.94845400;5.30809100;2022-10-23T13:46:29;21.80;85.60
3332;DHT22;1678;50.94845400;5.30809100;2022-10-23T13:48:57;21.80;85.60
3332;DHT22;1678;50.94845400;5.30809100;2022-10-23T13:51:28;21.80;86.70
3332;DHT22;1678;50.94845400;5.30809100;2022-10-23T13:53:57;21.60;85.40
3332;DHT22;1678;50.94845400;5.30809100;2022-10-23T13:56:26;21.60;86.00
3332;DHT22;1678;50.94845400;5.30809100;2022-10-23T13:58:54;21.70;86.80
3332;DHT22;1678;50.94845400;5.30809100;2022-10-23T14:01:26;21.60;86.80
3332;DHT22;1678;50.94845400;5.30809100;2022-10-23T14:03:56;21.50;87.00
3332;DHT22;1678;50.94845400;5.30809100;2022-10-23T14:06:24;21.40;89.20
3332;DHT22;1678;50.94845400;5.30809100;2022-10-23T14:08:54;21.40;89.20
3332;DHT22;1678;50.94845400;5.30809100;2022-10-23T14:11:22;21.30;90.10
3332;DHT22;1678;50.94845400;5.30809100;2022-10-23T14:13:50;21.30;89.90
3332;DHT22;1678;50.94845400;5.30809100;2022-10-23T14:16:19;21.20;90.40